sensor_id;sensor_type;location;lat;lon;timestamp;P1;durP1;ratioP1;P2;durP2;ratioP2
65831;SDS011;52593;42.648;23.332;2022-07-12T00:00:34;5.00;;;2.20;;
65831;SDS011;52593;42.648;23.332;2022-07-12T00:02:59;5.67;;;2.20;;
65831;SDS011;52593;42.648;23.332;2022-07-12T00:05:25;5.70;;;2.27;;
65831;SDS011;52593;42.648;23.332;2022-07-12T00:07:50;4.03;;;2.17;;
65831;SDS011;52593;42.648;23.332;2022-07-12T00:10:15;7.43;;;2.27;;
65831;SDS011;52593;42.648;23.332;2022-07-12T00:12:41;5.50;;;2.40;;
65831;SDS011;52593;42.648;23.332;2022-07-12T00:15:07;5.40;;;2.20;;
65831;SDS011;52593;42.648;23.332;2022-07-12T00:17:32;4.20;;;1.95;;
65831;SDS011;52593;42.648;23.332;2022-07-12T00:19:58;6.13;;;2.20;;
65831;SDS011;52593;42.648;23.332;2022-07-12T00:22:23;5.43;;;2.00;;
65831;SDS011;52593;42.648;23.332;2022-07-12T00:24:49;4.88;;;1.80;;
65831;SDS011;52593;42.648;23.332;2022-07-12T00:27:15;4.70;;;1.87;;
65831;SDS011;52593;42.648;23.332;2022-07-12T00:29:40;7.40;;;1.65;;
65831;SDS011;52593;42.648;23.332;2022-07-12T00:32:06;5.50;;;1.87;;
65831;SDS011;52593;42.648;23.332;2022-07-12T00:34:32;6.55;;;1.95;;
65831;SDS011;52593;42.648;23.332;2022-07-12T00:36:58;4.90;;;1.60;;
65831;SDS011;52593;42.648;23.332;2022-07-12T00:39:23;6.80;;;1.50;;
65831;SDS011;52593;42.648;23.332;2022-07-12T00:41:49;3.63;;;1.40;;
65831;SDS011;52593;42.648;23.332;2022-07-12T00:44:15;3.53;;;1.40;;
65831;SDS011;52593;42.648;23.332;2022-07-12T00:46:40;5.75;;;1.63;;
65831;SDS011;52593;42.648;23.332;2022-07-12T00:49:06;3.93;;;1.60;;
65831;SDS011;52593;42.648;23.332;2022-07-12T00:51:32;5.53;;;1.70;;
65831;SDS011;52593;42.648;23.332;2022-07-12T00:53:58;4.88;;;1.77;;
65831;SDS011;52593;42.648;23.332;2022-07-12T00:56:24;5.60;;;1.70;;
65831;SDS011;52593;42.648;23.332;2022-07-12T00:58:50;5.53;;;1.50;;
65831;SDS011;52593;42.648;23.332;2022-07-12T01:01:15;5.60;;;1.70;;
65831;SDS011;52593;42.648;23.332;2022-07-12T01:03:41;4.77;;;1.50;;
65831;SDS011;52593;42.648;23.332;2022-07-12T01:06:07;5.53;;;1.40;;
65831;SDS011;52593;42.648;23.332;2022-07-12T01:08:33;3.80;;;1.48;;
65831;SDS011;52593;42.648;23.332;2022-07-12T01:11:00;5.35;;;1.42;;
65831;SDS011;52593;42.648;23.332;2022-07-12T01:13:27;4.77;;;1.70;;
65831;SDS011;52593;42.648;23.332;2022-07-12T01:15:54;4.32;;;1.77;;
65831;SDS011;52593;42.648;23.332;2022-07-12T01:18:19;5.77;;;1.57;;
65831;SDS011;52593;42.648;23.332;2022-07-12T01:20:45;6.18;;;1.30;;
65831;SDS011;52593;42.648;23.332;2022-07-12T01:23:11;4.70;;;1.70;;
65831;SDS011;52593;42.648;23.332;2022-07-12T01:25:37;5.83;;;1.80;;
65831;SDS011;52593;42.648;23.332;2022-07-12T01:28:03;4.15;;;1.70;;
65831;SDS011;52593;42.648;23.332;2022-07-12T01:30:29;6.77;;;1.60;;
65831;SDS011;52593;42.648;23.332;2022-07-12T01:32:54;4.38;;;1.50;;
65831;SDS011;52593;42.648;23.332;2022-07-12T01:35:21;4.60;;;1.40;;
65831;SDS011;52593;42.648;23.332;2022-07-12T01:37:46;4.22;;;1.42;;
65831;SDS011;52593;42.648;23.332;2022-07-12T01:40:12;4.00;;;1.70;;
65831;SDS011;52593;42.648;23.332;2022-07-12T01:42:39;4.28;;;1.70;;
65831;SDS011;52593;42.648;23.332;2022-07-12T01:45:05;4.55;;;1.80;;
65831;SDS011;52593;42.648;23.332;2022-07-12T01:47:32;5.60;;;1.80;;
65831;SDS011;52593;42.648;23.332;2022-07-12T01:49:59;4.60;;;1.90;;
65831;SDS011;52593;42.648;23.332;2022-07-12T01:52:25;7.10;;;1.90;;
65831;SDS011;52593;42.648;23.332;2022-07-12T01:54:50;5.35;;;1.80;;
65831;SDS011;52593;42.648;23.332;2022-07-12T01:57:17;4.68;;;2.30;;
65831;SDS011;52593;42.648;23.332;2022-07-12T01:59:44;5.67;;;1.97;;
65831;SDS011;52593;42.648;23.332;2022-07-12T02:02:10;5.78;;;2.83;;
65831;SDS011;52593;42.648;23.332;2022-07-12T02:04:35;6.40;;;3.00;;
65831;SDS011;52593;42.648;23.332;2022-07-12T02:07:01;5.50;;;2.90;;
65831;SDS011;52593;42.648;23.332;2022-07-12T02:09:27;8.38;;;3.67;;
65831;SDS011;52593;42.648;23.332;2022-07-12T02:11:53;6.33;;;3.30;;
65831;SDS011;52593;42.648;23.332;2022-07-12T02:14:19;5.82;;;3.20;;
65831;SDS011;52593;42.648;23.332;2022-07-12T02:16:45;6.50;;;3.67;;
65831;SDS011;52593;42.648;23.332;2022-07-12T02:19:11;6.65;;;3.50;;
65831;SDS011;52593;42.648;23.332;2022-07-12T02:21:37;7.70;;;3.63;;
65831;SDS011;52593;42.648;23.332;2022-07-12T02:24:03;6.63;;;3.30;;
65831;SDS011;52593;42.648;23.332;2022-07-12T02:26:29;6.68;;;3.42;;
65831;SDS011;52593;42.648;23.332;2022-07-12T02:28:57;7.10;;;3.58;;
65831;SDS011;52593;42.648;23.332;2022-07-12T02:31:22;7.33;;;3.67;;
65831;SDS011;52593;42.648;23.332;2022-07-12T02:33:48;6.75;;;3.47;;
65831;SDS011;52593;42.648;23.332;2022-07-12T02:36:13;7.07;;;3.60;;
65831;SDS011;52593;42.648;23.332;2022-07-12T02:38:38;7.27;;;3.60;;
65831;SDS011;52593;42.648;23.332;2022-07-12T02:41:04;6.80;;;3.43;;
65831;SDS011;52593;42.648;23.332;2022-07-12T02:43:30;6.75;;;3.58;;
65831;SDS011;52593;42.648;23.332;2022-07-12T02:46:09;6.97;;;3.77;;
65831;SDS011;52593;42.648;23.332;2022-07-12T02:48:36;7.50;;;3.75;;
65831;SDS011;52593;42.648;23.332;2022-07-12T02:51:03;7.18;;;3.55;;
65831;SDS011;52593;42.648;23.332;2022-07-12T02:53:29;7.40;;;3.70;;
65831;SDS011;52593;42.648;23.332;2022-07-12T02:55:55;9.63;;;3.83;;
65831;SDS011;52593;42.648;23.332;2022-07-12T02:58:21;9.73;;;3.83;;
65831;SDS011;52593;42.648;23.332;2022-07-12T03:00:46;7.13;;;4.00;;
65831;SDS011;52593;42.648;23.332;2022-07-12T03:03:12;8.07;;;3.83;;
65831;SDS011;52593;42.648;23.332;2022-07-12T03:05:37;11.73;;;4.07;;
65831;SDS011;52593;42.648;23.332;2022-07-12T03:08:03;8.27;;;3.97;;
65831;SDS011;52593;42.648;23.332;2022-07-12T03:10:29;10.82;;;4.60;;
65831;SDS011;52593;42.648;23.332;2022-07-12T03:12:54;8.50;;;4.47;;
65831;SDS011;52593;42.648;23.332;2022-07-12T03:15:20;10.27;;;4.40;;
65831;SDS011;52593;42.648;23.332;2022-07-12T03:17:45;12.17;;;4.57;;
65831;SDS011;52593;42.648;23.332;2022-07-12T03:20:11;7.23;;;4.20;;
65831;SDS011;52593;42.648;23.332;2022-07-12T03:22:39;6.85;;;4.20;;
65831;SDS011;52593;42.648;23.332;2022-07-12T03:25:05;8.25;;;4.40;;
65831;SDS011;52593;42.648;23.332;2022-07-12T03:27:33;9.53;;;4.20;;
65831;SDS011;52593;42.648;23.332;2022-07-12T03:29:58;7.63;;;4.63;;
65831;SDS011;52593;42.648;23.332;2022-07-12T03:32:24;10.80;;;5.03;;
65831;SDS011;52593;42.648;23.332;2022-07-12T03:34:50;6.13;;;3.50;;
65831;SDS011;52593;42.648;23.332;2022-07-12T03:37:15;8.23;;;3.37;;
65831;SDS011;52593;42.648;23.332;2022-07-12T03:39:41;10.82;;;3.35;;
65831;SDS011;52593;42.648;23.332;2022-07-12T03:42:06;9.47;;;3.70;;
65831;SDS011;52593;42.648;23.332;2022-07-12T03:44:32;8.37;;;3.47;;
65831;SDS011;52593;42.648;23.332;2022-07-12T03:46:58;6.45;;;3.20;;
65831;SDS011;52593;42.648;23.332;2022-07-12T03:49:24;5.93;;;3.22;;
65831;SDS011;52593;42.648;23.332;2022-07-12T03:51:50;6.97;;;3.00;;
65831;SDS011;52593;42.648;23.332;2022-07-12T03:54:15;7.28;;;3.30;;
65831;SDS011;52593;42.648;23.332;2022-07-12T03:56:40;6.33;;;3.23;;
65831;SDS011;52593;42.648;23.332;2022-07-12T03:59:24;6.57;;;3.03;;
65831;SDS011;52593;42.648;23.332;2022-07-12T04:01:50;7.93;;;2.80;;
65831;SDS011;52593;42.648;23.332;2022-07-12T04:04:15;6.07;;;2.93;;
65831;SDS011;52593;42.648;23.332;2022-07-12T04:06:40;5.60;;;3.00;;
65831;SDS011;52593;42.648;23.332;2022-07-12T04:09:06;7.40;;;2.73;;
65831;SDS011;52593;42.648;23.332;2022-07-12T04:11:32;5.97;;;2.88;;
65831;SDS011;52593;42.648;23.332;2022-07-12T04:13:58;6.63;;;2.73;;
65831;SDS011;52593;42.648;23.332;2022-07-12T04:16:23;6.68;;;2.92;;
65831;SDS011;52593;42.648;23.332;2022-07-12T04:18:49;6.63;;;3.30;;
65831;SDS011;52593;42.648;23.332;2022-07-12T04:21:15;8.83;;;3.67;;
65831;SDS011;52593;42.648;23.332;2022-07-12T04:23:40;8.07;;;3.33;;
65831;SDS011;52593;42.648;23.332;2022-07-12T04:26:06;9.60;;;3.20;;
65831;SDS011;52593;42.648;23.332;2022-07-12T04:28:31;8.30;;;3.45;;
65831;SDS011;52593;42.648;23.332;2022-07-12T04:30:57;10.37;;;3.90;;
65831;SDS011;52593;42.648;23.332;2022-07-12T04:33:22;6.53;;;3.93;;
65831;SDS011;52593;42.648;23.332;2022-07-12T04:35:48;8.27;;;3.50;;
65831;SDS011;52593;42.648;23.332;2022-07-12T04:38:13;9.23;;;3.67;;
65831;SDS011;52593;42.648;23.332;2022-07-12T04:40:38;7.20;;;3.83;;
65831;SDS011;52593;42.648;23.332;2022-07-12T04:43:04;7.50;;;3.73;;
65831;SDS011;52593;42.648;23.332;2022-07-12T04:45:29;6.93;;;3.60;;
65831;SDS011;52593;42.648;23.332;2022-07-12T04:47:54;9.88;;;4.25;;
65831;SDS011;52593;42.648;23.332;2022-07-12T04:50:20;7.30;;;3.87;;
65831;SDS011;52593;42.648;23.332;2022-07-12T04:52:45;7.73;;;3.80;;
65831;SDS011;52593;42.648;23.332;2022-07-12T04:55:11;7.97;;;3.80;;
65831;SDS011;52593;42.648;23.332;2022-07-12T04:57:36;7.55;;;4.03;;
65831;SDS011;52593;42.648;23.332;2022-07-12T05:00:05;8.50;;;4.20;;
65831;SDS011;52593;42.648;23.332;2022-07-12T05:02:32;10.38;;;4.50;;
65831;SDS011;52593;42.648;23.332;2022-07-12T05:04:58;9.73;;;4.22;;
65831;SDS011;52593;42.648;23.332;2022-07-12T05:07:24;10.07;;;4.20;;
65831;SDS011;52593;42.648;23.332;2022-07-12T05:09:50;7.15;;;4.07;;
65831;SDS011;52593;42.648;23.332;2022-07-12T05:12:18;9.27;;;4.28;;
65831;SDS011;52593;42.648;23.332;2022-07-12T05:14:44;7.77;;;4.60;;
65831;SDS011;52593;42.648;23.332;2022-07-12T05:17:09;7.67;;;4.10;;
65831;SDS011;52593;42.648;23.332;2022-07-12T05:19:36;9.07;;;4.85;;
65831;SDS011;52593;42.648;23.332;2022-07-12T05:22:02;9.77;;;4.40;;
65831;SDS011;52593;42.648;23.332;2022-07-12T05:24:28;11.95;;;4.32;;
65831;SDS011;52593;42.648;23.332;2022-07-12T05:26:54;8.67;;;4.30;;
65831;SDS011;52593;42.648;23.332;2022-07-12T05:29:19;11.97;;;4.90;;
65831;SDS011;52593;42.648;23.332;2022-07-12T05:31:45;10.40;;;4.55;;
65831;SDS011;52593;42.648;23.332;2022-07-12T05:34:10;9.30;;;4.37;;
65831;SDS011;52593;42.648;23.332;2022-07-12T05:36:35;10.27;;;4.90;;
65831;SDS011;52593;42.648;23.332;2022-07-12T05:39:01;10.50;;;5.03;;
65831;SDS011;52593;42.648;23.332;2022-07-12T05:41:26;13.55;;;6.32;;
65831;SDS011;52593;42.648;23.332;2022-07-12T05:43:52;10.07;;;4.20;;
65831;SDS011;52593;42.648;23.332;2022-07-12T05:46:17;7.97;;;4.23;;
65831;SDS011;52593;42.648;23.332;2022-07-12T05:48:42;11.43;;;4.40;;
65831;SDS011;52593;42.648;23.332;2022-07-12T05:51:08;10.90;;;4.30;;
65831;SDS011;52593;42.648;23.332;2022-07-12T05:53:52;11.25;;;4.47;;
65831;SDS011;52593;42.648;23.332;2022-07-12T05:56:17;9.90;;;4.20;;
65831;SDS011;52593;42.648;23.332;2022-07-12T05:58:42;9.68;;;4.57;;
65831;SDS011;52593;42.648;23.332;2022-07-12T06:01:08;11.40;;;4.30;;
65831;SDS011;52593;42.648;23.332;2022-07-12T06:03:33;12.40;;;4.73;;
65831;SDS011;52593;42.648;23.332;2022-07-12T06:05:59;8.67;;;4.30;;
65831;SDS011;52593;42.648;23.332;2022-07-12T06:08:24;10.25;;;3.72;;
65831;SDS011;52593;42.648;23.332;2022-07-12T06:10:50;10.80;;;4.13;;
65831;SDS011;52593;42.648;23.332;2022-07-12T06:13:15;9.03;;;3.93;;
65831;SDS011;52593;42.648;23.332;2022-07-12T06:15:41;11.50;;;3.88;;
65831;SDS011;52593;42.648;23.332;2022-07-12T06:18:06;10.37;;;3.67;;
65831;SDS011;52593;42.648;23.332;2022-07-12T06:20:32;8.07;;;3.57;;
65831;SDS011;52593;42.648;23.332;2022-07-12T06:22:57;6.53;;;2.73;;
65831;SDS011;52593;42.648;23.332;2022-07-12T06:25:23;6.67;;;1.97;;
65831;SDS011;52593;42.648;23.332;2022-07-12T06:27:49;6.43;;;1.70;;
65831;SDS011;52593;42.648;23.332;2022-07-12T06:30:15;7.18;;;1.65;;
65831;SDS011;52593;42.648;23.332;2022-07-12T06:32:42;6.40;;;1.40;;
65831;SDS011;52593;42.648;23.332;2022-07-12T06:35:08;4.68;;;1.63;;
65831;SDS011;52593;42.648;23.332;2022-07-12T06:37:34;8.90;;;1.57;;
65831;SDS011;52593;42.648;23.332;2022-07-12T06:39:59;5.47;;;1.88;;
65831;SDS011;52593;42.648;23.332;2022-07-12T06:42:25;7.13;;;1.87;;
65831;SDS011;52593;42.648;23.332;2022-07-12T06:44:50;6.00;;;1.70;;
65831;SDS011;52593;42.648;23.332;2022-07-12T06:47:16;4.93;;;1.53;;
65831;SDS011;52593;42.648;23.332;2022-07-12T06:49:41;7.15;;;1.77;;
65831;SDS011;52593;42.648;23.332;2022-07-12T06:52:06;5.90;;;1.50;;
65831;SDS011;52593;42.648;23.332;2022-07-12T06:54:32;6.10;;;1.60;;
65831;SDS011;52593;42.648;23.332;2022-07-12T06:56:57;8.13;;;1.50;;
65831;SDS011;52593;42.648;23.332;2022-07-12T06:59:23;5.85;;;1.40;;
65831;SDS011;52593;42.648;23.332;2022-07-12T07:01:48;6.63;;;1.60;;
65831;SDS011;52593;42.648;23.332;2022-07-12T07:04:14;4.55;;;1.70;;
65831;SDS011;52593;42.648;23.332;2022-07-12T07:06:40;7.03;;;1.17;;
65831;SDS011;52593;42.648;23.332;2022-07-12T07:09:05;6.93;;;1.77;;
65831;SDS011;52593;42.648;23.332;2022-07-12T07:11:32;6.10;;;1.70;;
65831;SDS011;52593;42.648;23.332;2022-07-12T07:13:58;9.80;;;1.92;;
65831;SDS011;52593;42.648;23.332;2022-07-12T07:16:23;4.20;;;1.50;;
65831;SDS011;52593;42.648;23.332;2022-07-12T07:18:49;5.13;;;1.40;;
65831;SDS011;52593;42.648;23.332;2022-07-12T07:21:15;6.53;;;1.40;;
65831;SDS011;52593;42.648;23.332;2022-07-12T07:23:40;6.38;;;1.40;;
65831;SDS011;52593;42.648;23.332;2022-07-12T07:26:06;6.60;;;1.50;;
65831;SDS011;52593;42.648;23.332;2022-07-12T07:28:31;6.83;;;1.80;;
65831;SDS011;52593;42.648;23.332;2022-07-12T07:30:56;5.27;;;1.63;;
65831;SDS011;52593;42.648;23.332;2022-07-12T07:33:23;11.40;;;2.88;;
65831;SDS011;52593;42.648;23.332;2022-07-12T07:35:50;5.05;;;1.52;;
65831;SDS011;52593;42.648;23.332;2022-07-12T07:38:17;4.68;;;1.60;;
65831;SDS011;52593;42.648;23.332;2022-07-12T07:40:43;7.83;;;1.57;;
65831;SDS011;52593;42.648;23.332;2022-07-12T07:43:10;4.28;;;1.42;;
65831;SDS011;52593;42.648;23.332;2022-07-12T07:45:36;7.30;;;1.48;;
65831;SDS011;52593;42.648;23.332;2022-07-12T07:48:01;7.32;;;1.63;;
65831;SDS011;52593;42.648;23.332;2022-07-12T07:50:29;4.50;;;1.13;;
65831;SDS011;52593;42.648;23.332;2022-07-12T07:52:55;5.97;;;1.27;;
65831;SDS011;52593;42.648;23.332;2022-07-12T07:55:21;7.05;;;1.50;;
65831;SDS011;52593;42.648;23.332;2022-07-12T07:57:46;5.03;;;1.00;;
65831;SDS011;52593;42.648;23.332;2022-07-12T08:00:12;3.28;;;0.80;;
65831;SDS011;52593;42.648;23.332;2022-07-12T08:02:38;3.60;;;1.00;;
65831;SDS011;52593;42.648;23.332;2022-07-12T08:05:05;4.03;;;1.13;;
65831;SDS011;52593;42.648;23.332;2022-07-12T08:07:31;5.43;;;1.13;;
65831;SDS011;52593;42.648;23.332;2022-07-12T08:09:56;5.03;;;1.20;;
65831;SDS011;52593;42.648;23.332;2022-07-12T08:12:22;5.33;;;1.20;;
65831;SDS011;52593;42.648;23.332;2022-07-12T08:14:47;6.43;;;1.58;;
65831;SDS011;52593;42.648;23.332;2022-07-12T08:17:12;7.03;;;1.00;;
65831;SDS011;52593;42.648;23.332;2022-07-12T08:19:38;5.83;;;1.30;;
65831;SDS011;52593;42.648;23.332;2022-07-12T08:22:03;4.33;;;0.93;;
65831;SDS011;52593;42.648;23.332;2022-07-12T08:24:29;5.68;;;1.20;;
65831;SDS011;52593;42.648;23.332;2022-07-12T08:26:54;5.97;;;1.27;;
65831;SDS011;52593;42.648;23.332;2022-07-12T08:29:20;4.57;;;1.10;;
65831;SDS011;52593;42.648;23.332;2022-07-12T08:31:45;4.17;;;1.20;;
65831;SDS011;52593;42.648;23.332;2022-07-12T08:34:11;7.28;;;1.23;;
65831;SDS011;52593;42.648;23.332;2022-07-12T08:36:36;5.57;;;1.20;;
65831;SDS011;52593;42.648;23.332;2022-07-12T08:39:02;6.77;;;1.20;;
65831;SDS011;52593;42.648;23.332;2022-07-12T08:41:28;6.30;;;2.15;;
65831;SDS011;52593;42.648;23.332;2022-07-12T08:43:54;6.10;;;1.10;;
65831;SDS011;52593;42.648;23.332;2022-07-12T08:46:20;3.23;;;0.90;;
65831;SDS011;52593;42.648;23.332;2022-07-12T08:48:45;6.17;;;1.20;;
65831;SDS011;52593;42.648;23.332;2022-07-12T08:51:15;4.50;;;1.50;;
65831;SDS011;52593;42.648;23.332;2022-07-12T08:53:43;5.80;;;1.13;;
65831;SDS011;52593;42.648;23.332;2022-07-12T08:56:29;6.32;;;1.20;;
65831;SDS011;52593;42.648;23.332;2022-07-12T08:59:11;4.97;;;1.50;;
65831;SDS011;52593;42.648;23.332;2022-07-12T09:01:42;7.23;;;1.30;;
65831;SDS011;52593;42.648;23.332;2022-07-12T09:06:45;4.85;;;1.08;;
65831;SDS011;52593;42.648;23.332;2022-07-12T09:09:11;3.33;;;0.95;;
65831;SDS011;52593;42.648;23.332;2022-07-12T09:11:55;4.32;;;0.90;;
65831;SDS011;52593;42.648;23.332;2022-07-12T09:14:21;5.23;;;1.10;;
65831;SDS011;52593;42.648;23.332;2022-07-12T09:17:03;6.82;;;1.25;;
65831;SDS011;52593;42.648;23.332;2022-07-12T09:19:37;4.33;;;0.90;;
65831;SDS011;52593;42.648;23.332;2022-07-12T09:22:03;3.97;;;0.90;;
65831;SDS011;52593;42.648;23.332;2022-07-12T09:24:38;4.35;;;1.00;;
65831;SDS011;52593;42.648;23.332;2022-07-12T09:27:03;4.27;;;1.30;;
65831;SDS011;52593;42.648;23.332;2022-07-12T09:29:32;5.07;;;0.90;;
65831;SDS011;52593;42.648;23.332;2022-07-12T09:32:11;3.65;;;0.70;;
65831;SDS011;52593;42.648;23.332;2022-07-12T09:34:56;4.22;;;0.80;;
65831;SDS011;52593;42.648;23.332;2022-07-12T09:37:41;4.37;;;1.10;;
65831;SDS011;52593;42.648;23.332;2022-07-12T09:40:07;4.15;;;0.90;;
65831;SDS011;52593;42.648;23.332;2022-07-12T09:42:33;2.95;;;0.65;;
65831;SDS011;52593;42.648;23.332;2022-07-12T09:45:00;6.23;;;0.90;;
65831;SDS011;52593;42.648;23.332;2022-07-12T09:47:25;4.88;;;0.90;;
65831;SDS011;52593;42.648;23.332;2022-07-12T09:49:51;3.95;;;1.20;;
65831;SDS011;52593;42.648;23.332;2022-07-12T09:52:22;3.50;;;0.90;;
65831;SDS011;52593;42.648;23.332;2022-07-12T09:54:50;4.38;;;1.65;;
65831;SDS011;52593;42.648;23.332;2022-07-12T09:57:30;5.25;;;0.82;;
65831;SDS011;52593;42.648;23.332;2022-07-12T09:59:57;3.72;;;1.08;;
65831;SDS011;52593;42.648;23.332;2022-07-12T10:02:23;4.97;;;1.00;;
65831;SDS011;52593;42.648;23.332;2022-07-12T10:04:50;4.30;;;0.93;;
65831;SDS011;52593;42.648;23.332;2022-07-12T10:07:16;3.22;;;1.00;;
65831;SDS011;52593;42.648;23.332;2022-07-12T10:09:42;4.50;;;0.80;;
65831;SDS011;52593;42.648;23.332;2022-07-12T10:12:10;4.30;;;0.90;;
65831;SDS011;52593;42.648;23.332;2022-07-12T10:14:37;7.30;;;0.80;;
65831;SDS011;52593;42.648;23.332;2022-07-12T10:17:03;3.97;;;0.80;;
65831;SDS011;52593;42.648;23.332;2022-07-12T10:19:34;3.75;;;0.70;;
65831;SDS011;52593;42.648;23.332;2022-07-12T10:22:01;4.45;;;0.82;;
65831;SDS011;52593;42.648;23.332;2022-07-12T10:29:40;4.05;;;0.68;;
65831;SDS011;52593;42.648;23.332;2022-07-12T10:32:22;3.00;;;0.70;;
65831;SDS011;52593;42.648;23.332;2022-07-12T10:35:07;2.88;;;0.63;;
65831;SDS011;52593;42.648;23.332;2022-07-12T10:37:37;3.47;;;0.85;;
65831;SDS011;52593;42.648;23.332;2022-07-12T10:42:38;4.55;;;0.90;;
65831;SDS011;52593;42.648;23.332;2022-07-12T10:45:16;3.65;;;0.70;;
65831;SDS011;52593;42.648;23.332;2022-07-12T10:47:57;5.03;;;0.70;;
65831;SDS011;52593;42.648;23.332;2022-07-12T10:53:26;3.28;;;0.80;;
65831;SDS011;52593;42.648;23.332;2022-07-12T10:58:30;4.72;;;1.00;;
65831;SDS011;52593;42.648;23.332;2022-07-12T11:00:57;3.67;;;0.73;;
65831;SDS011;52593;42.648;23.332;2022-07-12T11:03:29;4.20;;;0.90;;
65831;SDS011;52593;42.648;23.332;2022-07-12T11:06:00;4.13;;;0.70;;
65831;SDS011;52593;42.648;23.332;2022-07-12T11:08:28;4.85;;;1.00;;
65831;SDS011;52593;42.648;23.332;2022-07-12T11:10:57;6.45;;;1.00;;
65831;SDS011;52593;42.648;23.332;2022-07-12T11:13:23;3.55;;;0.98;;
65831;SDS011;52593;42.648;23.332;2022-07-12T11:15:57;4.87;;;0.90;;
65831;SDS011;52593;42.648;23.332;2022-07-12T11:18:33;5.60;;;1.00;;
65831;SDS011;52593;42.648;23.332;2022-07-12T11:21:00;3.38;;;0.88;;
65831;SDS011;52593;42.648;23.332;2022-07-12T11:23:26;3.95;;;0.90;;
65831;SDS011;52593;42.648;23.332;2022-07-12T11:25:57;4.00;;;1.08;;
65831;SDS011;52593;42.648;23.332;2022-07-12T11:28:24;3.97;;;0.80;;
65831;SDS011;52593;42.648;23.332;2022-07-12T11:30:50;5.00;;;1.08;;
65831;SDS011;52593;42.648;23.332;2022-07-12T11:33:16;4.13;;;0.88;;
65831;SDS011;52593;42.648;23.332;2022-07-12T11:35:45;3.60;;;1.00;;
65831;SDS011;52593;42.648;23.332;2022-07-12T11:38:12;3.33;;;0.80;;
65831;SDS011;52593;42.648;23.332;2022-07-12T11:40:38;3.72;;;1.20;;
65831;SDS011;52593;42.648;23.332;2022-07-12T11:43:03;5.17;;;1.30;;
65831;SDS011;52593;42.648;23.332;2022-07-12T11:45:33;3.80;;;1.02;;
65831;SDS011;52593;42.648;23.332;2022-07-12T11:48:02;3.65;;;1.00;;
65831;SDS011;52593;42.648;23.332;2022-07-12T11:50:29;3.83;;;1.08;;
65831;SDS011;52593;42.648;23.332;2022-07-12T11:52:55;3.85;;;1.25;;
65831;SDS011;52593;42.648;23.332;2022-07-12T11:55:21;4.03;;;1.00;;
65831;SDS011;52593;42.648;23.332;2022-07-12T11:57:46;5.25;;;1.15;;
65831;SDS011;52593;42.648;23.332;2022-07-12T12:02:38;3.35;;;1.00;;
65831;SDS011;52593;42.648;23.332;2022-07-12T12:05:03;4.70;;;1.20;;
65831;SDS011;52593;42.648;23.332;2022-07-12T12:07:29;5.35;;;1.38;;
65831;SDS011;52593;42.648;23.332;2022-07-12T12:12:42;4.82;;;0.93;;
65831;SDS011;52593;42.648;23.332;2022-07-12T12:15:14;3.83;;;0.90;;
65831;SDS011;52593;42.648;23.332;2022-07-12T12:20:16;3.88;;;1.17;;
65831;SDS011;52593;42.648;23.332;2022-07-12T12:22:46;3.88;;;1.10;;
65831;SDS011;52593;42.648;23.332;2022-07-12T12:25:13;3.90;;;1.60;;
65831;SDS011;52593;42.648;23.332;2022-07-12T12:28:01;6.53;;;1.10;;
65831;SDS011;52593;42.648;23.332;2022-07-12T12:30:26;3.65;;;1.30;;
65831;SDS011;52593;42.648;23.332;2022-07-12T12:32:53;3.33;;;1.10;;
65831;SDS011;52593;42.648;23.332;2022-07-12T12:35:29;4.10;;;1.10;;
65831;SDS011;52593;42.648;23.332;2022-07-12T12:37:56;5.70;;;1.15;;
65831;SDS011;52593;42.648;23.332;2022-07-12T12:40:26;3.77;;;0.90;;
65831;SDS011;52593;42.648;23.332;2022-07-12T12:43:04;4.85;;;1.30;;
65831;SDS011;52593;42.648;23.332;2022-07-12T12:45:49;4.85;;;1.27;;
65831;SDS011;52593;42.648;23.332;2022-07-12T12:48:23;3.72;;;1.02;;
65831;SDS011;52593;42.648;23.332;2022-07-12T12:51:03;4.10;;;1.20;;
65831;SDS011;52593;42.648;23.332;2022-07-12T12:53:33;8.40;;;1.20;;
65831;SDS011;52593;42.648;23.332;2022-07-12T12:55:59;3.72;;;1.23;;
65831;SDS011;52593;42.648;23.332;2022-07-12T12:58:25;3.88;;;1.10;;
65831;SDS011;52593;42.648;23.332;2022-07-12T13:00:52;3.53;;;0.80;;
65831;SDS011;52593;42.648;23.332;2022-07-12T13:03:19;4.38;;;1.20;;
65831;SDS011;52593;42.648;23.332;2022-07-12T13:05:46;5.45;;;1.20;;
65831;SDS011;52593;42.648;23.332;2022-07-12T13:08:15;2.90;;;0.95;;
65831;SDS011;52593;42.648;23.332;2022-07-12T13:10:41;3.72;;;1.02;;
65831;SDS011;52593;42.648;23.332;2022-07-12T13:13:08;4.13;;;1.20;;
65831;SDS011;52593;42.648;23.332;2022-07-12T13:15:34;5.03;;;1.38;;
65831;SDS011;52593;42.648;23.332;2022-07-12T13:18:01;4.25;;;1.27;;
65831;SDS011;52593;42.648;23.332;2022-07-12T13:20:27;4.40;;;1.00;;
65831;SDS011;52593;42.648;23.332;2022-07-12T13:22:53;8.38;;;1.10;;
65831;SDS011;52593;42.648;23.332;2022-07-12T13:25:19;4.57;;;1.00;;
65831;SDS011;52593;42.648;23.332;2022-07-12T13:27:45;3.58;;;1.10;;
65831;SDS011;52593;42.648;23.332;2022-07-12T13:30:12;4.00;;;1.10;;
65831;SDS011;52593;42.648;23.332;2022-07-12T13:32:39;4.37;;;1.00;;
65831;SDS011;52593;42.648;23.332;2022-07-12T13:35:06;3.35;;;1.10;;
65831;SDS011;52593;42.648;23.332;2022-07-12T13:37:33;5.95;;;1.20;;
65831;SDS011;52593;42.648;23.332;2022-07-12T13:39:58;3.60;;;1.00;;
65831;SDS011;52593;42.648;23.332;2022-07-12T13:42:39;3.83;;;1.17;;
65831;SDS011;52593;42.648;23.332;2022-07-12T13:45:06;4.03;;;1.20;;
65831;SDS011;52593;42.648;23.332;2022-07-12T13:47:34;4.07;;;1.20;;
65831;SDS011;52593;42.648;23.332;2022-07-12T13:50:00;6.67;;;1.50;;
65831;SDS011;52593;42.648;23.332;2022-07-12T13:52:25;8.20;;;1.40;;
65831;SDS011;52593;42.648;23.332;2022-07-12T13:54:50;3.25;;;1.00;;
65831;SDS011;52593;42.648;23.332;2022-07-12T13:57:16;3.40;;;1.07;;
65831;SDS011;52593;42.648;23.332;2022-07-12T13:59:41;3.33;;;0.90;;
65831;SDS011;52593;42.648;23.332;2022-07-12T14:02:07;3.83;;;1.17;;
65831;SDS011;52593;42.648;23.332;2022-07-12T14:04:32;3.90;;;1.13;;
65831;SDS011;52593;42.648;23.332;2022-07-12T14:06:58;4.43;;;1.00;;
65831;SDS011;52593;42.648;23.332;2022-07-12T14:09:23;3.50;;;1.20;;
65831;SDS011;52593;42.648;23.332;2022-07-12T14:11:49;3.50;;;1.20;;
65831;SDS011;52593;42.648;23.332;2022-07-12T14:14:15;4.50;;;1.13;;
65831;SDS011;52593;42.648;23.332;2022-07-12T14:16:42;3.40;;;1.35;;
65831;SDS011;52593;42.648;23.332;2022-07-12T14:19:07;6.20;;;1.53;;
65831;SDS011;52593;42.648;23.332;2022-07-12T14:21:33;4.27;;;1.10;;
65831;SDS011;52593;42.648;23.332;2022-07-12T14:23:58;3.10;;;0.98;;
65831;SDS011;52593;42.648;23.332;2022-07-12T14:26:29;3.40;;;1.10;;
65831;SDS011;52593;42.648;23.332;2022-07-12T14:28:55;5.40;;;1.30;;
65831;SDS011;52593;42.648;23.332;2022-07-12T14:31:20;3.95;;;1.35;;
65831;SDS011;52593;42.648;23.332;2022-07-12T14:33:46;3.40;;;1.13;;
65831;SDS011;52593;42.648;23.332;2022-07-12T14:36:11;4.00;;;1.30;;
65831;SDS011;52593;42.648;23.332;2022-07-12T14:38:36;5.40;;;1.20;;
65831;SDS011;52593;42.648;23.332;2022-07-12T14:41:02;4.72;;;1.27;;
65831;SDS011;52593;42.648;23.332;2022-07-12T14:43:27;3.37;;;1.23;;
65831;SDS011;52593;42.648;23.332;2022-07-12T14:45:53;6.17;;;1.67;;
65831;SDS011;52593;42.648;23.332;2022-07-12T14:48:18;4.17;;;1.20;;
65831;SDS011;52593;42.648;23.332;2022-07-12T14:50:44;4.27;;;1.20;;
65831;SDS011;52593;42.648;23.332;2022-07-12T14:53:09;3.80;;;1.30;;
65831;SDS011;52593;42.648;23.332;2022-07-12T14:55:35;4.70;;;1.40;;